sensor_id;sensor_type;location;lat;lon;timestamp;pressure;altitude;pressure_sealevel;temperature;humidity
10958;BME280;5531;42.570;23.676;2023-01-24T00:01:46;92911.13;;;1.81;100.00
10958;BME280;5531;42.570;23.676;2023-01-24T00:04:15;92911.13;;;1.81;100.00
10958;BME280;5531;42.570;23.676;2023-01-24T00:06:44;92911.56;;;1.86;100.00
10958;BME280;5531;42.570;23.676;2023-01-24T00:09:13;92907.09;;;1.88;100.00
10958;BME280;5531;42.570;23.676;2023-01-24T00:11:42;92901.69;;;1.91;100.00
10958;BME280;5531;42.570;23.676;2023-01-24T00:14:11;92903.78;;;1.97;100.00
10958;BME280;5531;42.570;23.676;2023-01-24T00:16:41;92915.50;;;2.01;100.00
10958;BME280;5531;42.570;23.676;2023-01-24T00:19:13;92917.16;;;2.03;100.00
10958;BME280;5531;42.570;23.676;2023-01-24T00:21:42;92915.00;;;2.08;100.00
10958;BME280;5531;42.570;23.676;2023-01-24T00:24:11;92915.63;;;2.00;100.00
10958;BME280;5531;42.570;23.676;2023-01-24T00:26:40;92915.50;;;2.01;100.00
10958;BME280;5531;42.570;23.676;2023-01-24T00:29:09;92921.75;;;1.99;100.00
10958;BME280;5531;42.570;23.676;2023-01-24T00:31:38;92922.09;;;2.06;100.00
10958;BME280;5531;42.570;23.676;2023-01-24T00:34:07;92917.59;;;2.08;100.00
10958;BME280;5531;42.570;23.676;2023-01-24T00:36:38;92922.31;;;2.03;100.00
10958;BME280;5531;42.570;23.676;2023-01-24T00:39:09;92929.63;;;1.97;100.00
10958;BME280;5531;42.570;23.676;2023-01-24T00:41:38;92917.97;;;2.03;100.00
10958;BME280;5531;42.570;23.676;2023-01-24T00:44:07;92919.88;;;2.01;100.00
10958;BME280;5531;42.570;23.676;2023-01-24T00:46:36;92930.81;;;1.93;100.00
10958;BME280;5531;42.570;23.676;2023-01-24T00:49:05;92918.97;;;1.91;100.00
10958;BME280;5531;42.570;23.676;2023-01-24T00:51:34;92924.81;;;1.93;100.00
10958;BME280;5531;42.570;23.676;2023-01-24T00:54:06;92927.19;;;1.85;100.00
10958;BME280;5531;42.570;23.676;2023-01-24T00:56:35;92923.28;;;1.90;100.00
10958;BME280;5531;42.570;23.676;2023-01-24T00:59:04;92920.97;;;1.76;100.00
10958;BME280;5531;42.570;23.676;2023-01-24T01:01:33;92923.09;;;1.71;100.00
10958;BME280;5531;42.570;23.676;2023-01-24T01:04:02;92929.81;;;1.73;100.00
10958;BME280;5531;42.570;23.676;2023-01-24T01:06:31;92931.31;;;1.64;100.00
10958;BME280;5531;42.570;23.676;2023-01-24T01:09:00;92924.31;;;1.67;100.00
10958;BME280;5531;42.570;23.676;2023-01-24T01:11:32;92923.94;;;1.71;100.00
10958;BME280;5531;42.570;23.676;2023-01-24T01:14:01;92924.31;;;1.67;100.00
10958;BME280;5531;42.570;23.676;2023-01-24T01:16:29;92915.72;;;1.66;100.00
10958;BME280;5531;42.570;23.676;2023-01-24T01:19:04;92919.50;;;1.62;100.00
10958;BME280;5531;42.570;23.676;2023-01-24T01:21:33;92913.47;;;1.73;100.00
10958;BME280;5531;42.570;23.676;2023-01-24T01:24:03;92917.69;;;1.74;100.00
10958;BME280;5531;42.570;23.676;2023-01-24T01:26:34;92916.03;;;1.73;100.00
10958;BME280;5531;42.570;23.676;2023-01-24T01:29:03;92915.69;;;1.77;100.00
10958;BME280;5531;42.570;23.676;2023-01-24T01:31:33;92919.22;;;1.76;100.00
10958;BME280;5531;42.570;23.676;2023-01-24T01:34:01;92911.16;;;1.70;100.00
10958;BME280;5531;42.570;23.676;2023-01-24T01:36:30;92910.66;;;1.64;100.00
10958;BME280;5531;42.570;23.676;2023-01-24T01:38:59;92900.47;;;1.63;100.00
10958;BME280;5531;42.570;23.676;2023-01-24T01:41:28;92904.81;;;1.62;100.00
10958;BME280;5531;42.570;23.676;2023-01-24T01:44:19;92904.34;;;1.69;100.00
10958;BME280;5531;42.570;23.676;2023-01-24T01:47:01;92900.50;;;1.52;100.00
10958;BME280;5531;42.570;23.676;2023-01-24T01:49:30;92900.88;;;1.47;100.00
10958;BME280;5531;42.570;23.676;2023-01-24T01:52:02;92894.38;;;1.53;100.00
10958;BME280;5531;42.570;23.676;2023-01-24T01:54:35;92891.00;;;1.52;100.00
10958;BME280;5531;42.570;23.676;2023-01-24T01:57:09;92895.59;;;1.49;100.00
10958;BME280;5531;42.570;23.676;2023-01-24T01:59:45;92895.34;;;1.52;100.00
10958;BME280;5531;42.570;23.676;2023-01-24T02:02:17;92899.31;;;1.56;100.00
10958;BME280;5531;42.570;23.676;2023-01-24T02:04:52;92900.84;;;1.58;100.00
10958;BME280;5531;42.570;23.676;2023-01-24T02:07:25;92897.75;;;1.64;100.00
10958;BME280;5531;42.570;23.676;2023-01-24T02:09:57;92893.91;;;1.59;100.00
10958;BME280;5531;42.570;23.676;2023-01-24T02:12:28;92903.44;;;1.58;100.00
10958;BME280;5531;42.570;23.676;2023-01-24T02:15:05;92903.41;;;1.70;100.00
10958;BME280;5531;42.570;23.676;2023-01-24T02:17:47;92898.16;;;1.60;100.00
10958;BME280;5531;42.570;23.676;2023-01-24T02:20:31;92900.00;;;1.58;100.00
10958;BME280;5531;42.570;23.676;2023-01-24T02:23:14;92894.84;;;1.46;100.00
10958;BME280;5531;42.570;23.676;2023-01-24T02:25:50;92898.16;;;1.49;100.00
10958;BME280;5531;42.570;23.676;2023-01-24T02:28:24;92890.41;;;1.49;100.00
10958;BME280;5531;42.570;23.676;2023-01-24T02:30:56;92897.34;;;1.37;100.00
10958;BME280;5531;42.570;23.676;2023-01-24T02:33:26;92901.59;;;1.26;100.00
10958;BME280;5531;42.570;23.676;2023-01-24T02:36:11;92888.56;;;1.28;100.00
10958;BME280;5531;42.570;23.676;2023-01-24T02:38:44;92895.03;;;1.34;100.00
10958;BME280;5531;42.570;23.676;2023-01-24T02:41:16;92892.44;;;1.34;100.00
10958;BME280;5531;42.570;23.676;2023-01-24T02:43:50;92894.41;;;1.30;100.00
10958;BME280;5531;42.570;23.676;2023-01-24T02:46:21;92898.41;;;1.34;100.00
10958;BME280;5531;42.570;23.676;2023-01-24T02:48:50;92898.31;;;1.36;100.00
10958;BME280;5531;42.570;23.676;2023-01-24T02:51:20;92893.25;;;1.45;100.00
10958;BME280;5531;42.570;23.676;2023-01-24T02:54:01;92889.13;;;1.32;100.00
10958;BME280;5531;42.570;23.676;2023-01-24T02:56:30;92896.63;;;1.46;100.00
10958;BME280;5531;42.570;23.676;2023-01-24T02:59:14;92898.03;;;1.50;100.00
10958;BME280;5531;42.570;23.676;2023-01-24T03:01:43;92896.63;;;1.46;100.00
10958;BME280;5531;42.570;23.676;2023-01-24T03:04:12;92899.91;;;1.37;100.00
10958;BME280;5531;42.570;23.676;2023-01-24T03:06:41;92888.19;;;1.44;100.00
10958;BME280;5531;42.570;23.676;2023-01-24T03:09:10;92898.50;;;1.55;100.00
10958;BME280;5531;42.570;23.676;2023-01-24T03:12:00;92896.28;;;1.39;100.00
10958;BME280;5531;42.570;23.676;2023-01-24T03:14:44;92903.22;;;1.39;100.00
10958;BME280;5531;42.570;23.676;2023-01-24T03:17:25;92893.72;;;1.39;100.00
10958;BME280;5531;42.570;23.676;2023-01-24T03:20:07;92894.28;;;1.43;100.00
10958;BME280;5531;42.570;23.676;2023-01-24T03:22:50;92895.16;;;1.32;100.00
10958;BME280;5531;42.570;23.676;2023-01-24T03:25:32;92902.78;;;1.22;100.00
10958;BME280;5531;42.570;23.676;2023-01-24T03:28:13;92893.38;;;1.21;100.00
10958;BME280;5531;42.570;23.676;2023-01-24T03:30:57;92895.97;;;1.10;100.00
10958;BME280;5531;42.570;23.676;2023-01-24T03:33:38;92886.56;;;1.09;100.00
10958;BME280;5531;42.570;23.676;2023-01-24T03:36:19;92898.31;;;1.24;100.00
10958;BME280;5531;42.570;23.676;2023-01-24T03:38:57;92896.53;;;1.25;100.00
10958;BME280;5531;42.570;23.676;2023-01-24T03:41:38;92888.09;;;1.23;100.00
10958;BME280;5531;42.570;23.676;2023-01-24T03:44:07;92880.25;;;1.24;100.00
10958;BME280;5531;42.570;23.676;2023-01-24T03:46:39;92890.44;;;1.26;100.00
10958;BME280;5531;42.570;23.676;2023-01-24T03:49:08;92880.13;;;1.26;100.00
10958;BME280;5531;42.570;23.676;2023-01-24T03:51:37;92887.97;;;1.24;100.00
10958;BME280;5531;42.570;23.676;2023-01-24T03:54:18;92884.22;;;1.28;100.00
10958;BME280;5531;42.570;23.676;2023-01-24T03:56:47;92895.38;;;1.29;100.00
10958;BME280;5531;42.570;23.676;2023-01-24T03:59:16;92888.69;;;1.26;100.00
10958;BME280;5531;42.570;23.676;2023-01-24T04:01:48;92887.97;;;1.24;100.00
10958;BME280;5531;42.570;23.676;2023-01-24T04:04:17;92883.41;;;1.17;100.00
10958;BME280;5531;42.570;23.676;2023-01-24T04:06:46;92882.13;;;1.22;100.00
10958;BME280;5531;42.570;23.676;2023-01-24T04:09:15;92886.56;;;1.20;100.00
10958;BME280;5531;42.570;23.676;2023-01-24T04:11:44;92878.94;;;1.07;100.00
10958;BME280;5531;42.570;23.676;2023-01-24T04:14:13;92882.59;;;1.16;100.00
10958;BME280;5531;42.570;23.676;2023-01-24T04:16:42;92885.19;;;1.16;100.00
10958;BME280;5531;42.570;23.676;2023-01-24T04:19:14;92883.88;;;1.22;100.00
10958;BME280;5531;42.570;23.676;2023-01-24T04:21:43;92877.78;;;1.23;100.00
10958;BME280;5531;42.570;23.676;2023-01-24T04:24:12;92875.91;;;1.25;100.00
10958;BME280;5531;42.570;23.676;2023-01-24T04:26:41;92881.88;;;1.25;100.00
10958;BME280;5531;42.570;23.676;2023-01-24T04:29:10;92878.72;;;1.22;100.00
10958;BME280;5531;42.570;23.676;2023-01-24T04:31:40;92881.06;;;1.25;100.00
10958;BME280;5531;42.570;23.676;2023-01-24T04:34:09;92876.97;;;1.22;100.00
10958;BME280;5531;42.570;23.676;2023-01-24T04:36:40;92870.84;;;1.12;100.00
10958;BME280;5531;42.570;23.676;2023-01-24T04:39:09;92872.25;;;1.27;100.00
10958;BME280;5531;42.570;23.676;2023-01-24T04:41:38;92864.84;;;1.34;100.00
10958;BME280;5531;42.570;23.676;2023-01-24T04:44:07;92869.78;;;1.37;100.00
10958;BME280;5531;42.570;23.676;2023-01-24T04:46:37;92867.31;;;1.36;100.00
10958;BME280;5531;42.570;23.676;2023-01-24T04:49:06;92861.47;;;1.34;100.00
10958;BME280;5531;42.570;23.676;2023-01-24T04:51:35;92876.44;;;1.40;100.00
10958;BME280;5531;42.570;23.676;2023-01-24T04:54:10;92868.13;;;1.36;100.00
10958;BME280;5531;42.570;23.676;2023-01-24T04:56:39;92872.47;;;1.36;100.00
10958;BME280;5531;42.570;23.676;2023-01-24T04:59:10;92878.25;;;1.28;100.00
10958;BME280;5531;42.570;23.676;2023-01-24T05:01:39;92878.34;;;1.38;100.00
10958;BME280;5531;42.570;23.676;2023-01-24T05:04:08;92876.09;;;1.44;100.00
10958;BME280;5531;42.570;23.676;2023-01-24T05:06:37;92879.88;;;1.40;100.00
10958;BME280;5531;42.570;23.676;2023-01-24T05:09:06;92886.66;;;1.41;100.00
10958;BME280;5531;42.570;23.676;2023-01-24T05:11:38;92886.53;;;1.43;100.00
10958;BME280;5531;42.570;23.676;2023-01-24T05:14:08;92887.97;;;1.36;100.00
10958;BME280;5531;42.570;23.676;2023-01-24T05:16:37;92897.59;;;1.34;100.00
10958;BME280;5531;42.570;23.676;2023-01-24T05:19:06;92897.63;;;1.22;100.00
10958;BME280;5531;42.570;23.676;2023-01-24T05:21:35;92897.34;;;1.25;100.00
10958;BME280;5531;42.570;23.676;2023-01-24T05:24:05;92901.91;;;1.44;100.00
10958;BME280;5531;42.570;23.676;2023-01-24T05:26:34;92898.78;;;1.30;100.00
10958;BME280;5531;42.570;23.676;2023-01-24T05:29:06;92892.56;;;1.32;100.00
10958;BME280;5531;42.570;23.676;2023-01-24T05:31:35;92899.81;;;1.38;100.00
10958;BME280;5531;42.570;23.676;2023-01-24T05:34:04;92904.72;;;1.41;100.00
10958;BME280;5531;42.570;23.676;2023-01-24T05:36:33;92898.88;;;1.39;100.00
10958;BME280;5531;42.570;23.676;2023-01-24T05:39:03;92910.75;;;1.42;100.00
10958;BME280;5531;42.570;23.676;2023-01-24T05:41:32;92912.34;;;1.43;100.00
10958;BME280;5531;42.570;23.676;2023-01-24T05:44:01;92922.09;;;1.39;100.00
10958;BME280;5531;42.570;23.676;2023-01-24T05:46:33;92935.72;;;1.19;100.00
10958;BME280;5531;42.570;23.676;2023-01-24T05:49:02;92936.31;;;1.11;100.00
10958;BME280;5531;42.570;23.676;2023-01-24T05:51:31;92943.34;;;1.09;100.00
10958;BME280;5531;42.570;23.676;2023-01-24T05:54:00;92953.53;;;0.99;100.00
10958;BME280;5531;42.570;23.676;2023-01-24T05:56:29;92945.09;;;0.97;100.00
10958;BME280;5531;42.570;23.676;2023-01-24T05:58:58;92945.22;;;0.96;100.00
10958;BME280;5531;42.570;23.676;2023-01-24T06:01:27;92949.06;;;0.79;100.00
10958;BME280;5531;42.570;23.676;2023-01-24T06:03:59;92956.09;;;0.77;100.00
10958;BME280;5531;42.570;23.676;2023-01-24T06:06:28;92947.16;;;0.58;100.00
10958;BME280;5531;42.570;23.676;2023-01-24T06:08:57;92953.38;;;0.56;100.00
10958;BME280;5531;42.570;23.676;2023-01-24T06:11:27;92957.81;;;0.53;100.00
10958;BME280;5531;42.570;23.676;2023-01-24T06:13:58;92955.38;;;0.63;100.00
10958;BME280;5531;42.570;23.676;2023-01-24T06:16:27;92957.31;;;0.48;100.00
10958;BME280;5531;42.570;23.676;2023-01-24T06:19:00;92955.06;;;0.44;100.00
10958;BME280;5531;42.570;23.676;2023-01-24T06:21:40;92959.63;;;0.40;100.00
10958;BME280;5531;42.570;23.676;2023-01-24T06:24:16;92959.78;;;0.50;100.00
10958;BME280;5531;42.570;23.676;2023-01-24T06:26:46;92963.06;;;0.52;100.00
10958;BME280;5531;42.570;23.676;2023-01-24T06:29:16;92963.31;;;0.60;100.00
10958;BME280;5531;42.570;23.676;2023-01-24T06:31:54;92970.84;;;0.63;100.00
10958;BME280;5531;42.570;23.676;2023-01-24T06:34:46;92974.22;;;0.52;100.00
10958;BME280;5531;42.570;23.676;2023-01-24T06:37:26;92963.19;;;0.50;100.00
10958;BME280;5531;42.570;23.676;2023-01-24T06:39:58;92966.25;;;0.56;100.00
10958;BME280;5531;42.570;23.676;2023-01-24T06:42:27;92967.44;;;0.63;100.00
10958;BME280;5531;42.570;23.676;2023-01-24T06:44:56;92977.97;;;0.60;100.00
10958;BME280;5531;42.570;23.676;2023-01-24T06:47:25;92992.41;;;0.62;100.00
10958;BME280;5531;42.570;23.676;2023-01-24T06:49:57;92983.56;;;0.89;100.00
10958;BME280;5531;42.570;23.676;2023-01-24T06:52:26;92978.41;;;1.00;100.00
10958;BME280;5531;42.570;23.676;2023-01-24T06:54:56;92982.41;;;0.93;100.00
10958;BME280;5531;42.570;23.676;2023-01-24T06:57:25;92975.47;;;0.82;100.00
10958;BME280;5531;42.570;23.676;2023-01-24T06:59:54;92989.50;;;0.78;100.00
10958;BME280;5531;42.570;23.676;2023-01-24T07:02:23;92990.69;;;0.74;100.00
10958;BME280;5531;42.570;23.676;2023-01-24T07:04:52;92992.47;;;0.85;100.00
10958;BME280;5531;42.570;23.676;2023-01-24T07:07:24;92991.72;;;0.71;100.00
10958;BME280;5531;42.570;23.676;2023-01-24T07:09:53;92998.78;;;0.81;100.00
10958;BME280;5531;42.570;23.676;2023-01-24T07:12:22;92994.78;;;0.77;100.00
10958;BME280;5531;42.570;23.676;2023-01-24T07:14:51;92994.44;;;0.81;100.00
10958;BME280;5531;42.570;23.676;2023-01-24T07:17:20;92999.13;;;0.87;100.00
10958;BME280;5531;42.570;23.676;2023-01-24T07:19:50;93001.44;;;0.68;100.00
10958;BME280;5531;42.570;23.676;2023-01-24T07:22:20;93005.56;;;0.70;100.00
10958;BME280;5531;42.570;23.676;2023-01-24T07:24:52;92999.19;;;0.63;100.00
10958;BME280;5531;42.570;23.676;2023-01-24T07:27:22;93011.16;;;0.64;100.00
10958;BME280;5531;42.570;23.676;2023-01-24T07:29:52;93005.19;;;0.64;100.00
10958;BME280;5531;42.570;23.676;2023-01-24T07:32:21;93007.84;;;0.51;100.00
10958;BME280;5531;42.570;23.676;2023-01-24T07:34:50;93016.38;;;0.51;100.00
10958;BME280;5531;42.570;23.676;2023-01-24T07:37:19;93014.97;;;0.47;100.00
10958;BME280;5531;42.570;23.676;2023-01-24T07:39:51;93017.78;;;0.44;100.00
10958;BME280;5531;42.570;23.676;2023-01-24T07:42:20;93016.50;;;0.50;100.00
10958;BME280;5531;42.570;23.676;2023-01-24T07:44:49;93015.91;;;0.46;100.00
10958;BME280;5531;42.570;23.676;2023-01-24T07:47:19;93021.97;;;0.45;100.00
10958;BME280;5531;42.570;23.676;2023-01-24T07:49:48;93025.50;;;0.44;100.00
10958;BME280;5531;42.570;23.676;2023-01-24T07:52:17;93033.13;;;0.46;100.00
10958;BME280;5531;42.570;23.676;2023-01-24T07:54:46;93026.69;;;0.51;100.00
10958;BME280;5531;42.570;23.676;2023-01-24T07:57:18;93035.50;;;0.60;100.00
10958;BME280;5531;42.570;23.676;2023-01-24T07:59:47;93032.00;;;0.61;100.00
10958;BME280;5531;42.570;23.676;2023-01-24T08:02:16;93029.75;;;0.57;100.00
10958;BME280;5531;42.570;23.676;2023-01-24T08:04:45;93043.34;;;0.59;100.00
10958;BME280;5531;42.570;23.676;2023-01-24T08:07:14;93042.53;;;0.58;100.00
10958;BME280;5531;42.570;23.676;2023-01-24T08:09:47;93038.75;;;0.75;100.00
10958;BME280;5531;42.570;23.676;2023-01-24T08:12:19;93036.66;;;0.80;100.00
10958;BME280;5531;42.570;23.676;2023-01-24T08:14:48;93036.81;;;0.90;100.00
10958;BME280;5531;42.570;23.676;2023-01-24T08:17:18;93034.09;;;0.91;100.00
10958;BME280;5531;42.570;23.676;2023-01-24T08:19:47;93043.28;;;0.71;100.00
10958;BME280;5531;42.570;23.676;2023-01-24T08:22:16;93037.25;;;0.84;100.00
10958;BME280;5531;42.570;23.676;2023-01-24T08:24:45;93041.44;;;0.73;100.00
10958;BME280;5531;42.570;23.676;2023-01-24T08:27:14;93043.06;;;0.75;100.00
10958;BME280;5531;42.570;23.676;2023-01-24T08:29:45;93047.84;;;0.68;100.00
10958;BME280;5531;42.570;23.676;2023-01-24T08:32:14;93048.06;;;0.65;100.00
10958;BME280;5531;42.570;23.676;2023-01-24T08:34:43;93047.63;;;0.71;100.00
10958;BME280;5531;42.570;23.676;2023-01-24T08:37:12;93052.31;;;0.66;100.00
10958;BME280;5531;42.570;23.676;2023-01-24T08:39:41;93048.66;;;0.57;100.00
10958;BME280;5531;42.570;23.676;2023-01-24T08:42:10;93047.91;;;0.55;100.00
10958;BME280;5531;42.570;23.676;2023-01-24T08:44:39;93047.44;;;0.50;100.00
10958;BME280;5531;42.570;23.676;2023-01-24T08:47:11;93046.28;;;0.54;100.00
10958;BME280;5531;42.570;23.676;2023-01-24T08:49:40;93044.84;;;0.50;100.00
10958;BME280;5531;42.570;23.676;2023-01-24T08:52:09;93041.19;;;0.41;100.00
10958;BME280;5531;42.570;23.676;2023-01-24T08:54:38;93049.19;;;0.49;100.00
10958;BME280;5531;42.570;23.676;2023-01-24T08:57:07;93046.34;;;0.41;100.00
10958;BME280;5531;42.570;23.676;2023-01-24T08:59:36;93043.72;;;0.54;100.00
10958;BME280;5531;42.570;23.676;2023-01-24T09:02:05;93051.19;;;0.46;100.00
10958;BME280;5531;42.570;23.676;2023-01-24T09:04:37;93048.72;;;0.44;100.00
10958;BME280;5531;42.570;23.676;2023-01-24T09:07:08;93038.88;;;0.49;100.00
10958;BME280;5531;42.570;23.676;2023-01-24T09:09:37;93041.63;;;0.59;100.00
10958;BME280;5531;42.570;23.676;2023-01-24T09:12:06;93047.91;;;0.55;100.00
10958;BME280;5531;42.570;23.676;2023-01-24T09:14:35;93044.91;;;0.61;100.00
10958;BME280;5531;42.570;23.676;2023-01-24T09:17:04;93039.25;;;0.56;100.00
10958;BME280;5531;42.570;23.676;2023-01-24T09:19:33;93039.97;;;0.58;100.00
10958;BME280;5531;42.570;23.676;2023-01-24T09:22:05;93035.22;;;0.76;100.00
10958;BME280;5531;42.570;23.676;2023-01-24T09:24:34;93035.25;;;0.87;100.00
10958;BME280;5531;42.570;23.676;2023-01-24T09:27:03;93043.72;;;1.01;100.00
10958;BME280;5531;42.570;23.676;2023-01-24T09:29:32;93045.69;;;0.86;100.00
10958;BME280;5531;42.570;23.676;2023-01-24T09:32:01;93039.72;;;0.85;100.00
10958;BME280;5531;42.570;23.676;2023-01-24T09:34:30;93037.03;;;0.87;100.00
10958;BME280;5531;42.570;23.676;2023-01-24T09:36:59;93036.53;;;0.82;100.00
10958;BME280;5531;42.570;23.676;2023-01-24T09:39:31;93031.72;;;0.77;100.00
10958;BME280;5531;42.570;23.676;2023-01-24T09:42:05;93035.91;;;0.78;100.00
10958;BME280;5531;42.570;23.676;2023-01-24T09:44:43;93024.09;;;0.76;100.00
10958;BME280;5531;42.570;23.676;2023-01-24T09:47:19;93028.81;;;0.82;100.00
10958;BME280;5531;42.570;23.676;2023-01-24T09:49:52;93031.75;;;0.88;100.00
10958;BME280;5531;42.570;23.676;2023-01-24T09:52:29;93030.00;;;1.00;100.00
10958;BME280;5531;42.570;23.676;2023-01-24T09:55:05;93023.34;;;1.09;100.00
10958;BME280;5531;42.570;23.676;2023-01-24T09:57:45;93016.22;;;1.13;100.00
10958;BME280;5531;42.570;23.676;2023-01-24T10:00:21;93024.78;;;1.24;100.00
10958;BME280;5531;42.570;23.676;2023-01-24T10:02:50;93026.28;;;1.27;100.00
10958;BME280;5531;42.570;23.676;2023-01-24T10:05:21;93017.72;;;1.26;100.00
10958;BME280;5531;42.570;23.676;2023-01-24T10:11:02;93023.00;;;1.14;100.00
10958;BME280;5531;42.570;23.676;2023-01-24T10:16:47;93014.31;;;1.03;100.00
10958;BME280;5531;42.570;23.676;2023-01-24T10:19:31;92997.44;;;1.22;100.00
10958;BME280;5531;42.570;23.676;2023-01-24T10:22:16;92998.97;;;1.24;100.00
10958;BME280;5531;42.570;23.676;2023-01-24T10:24:56;92995.56;;;1.24;100.00
10958;BME280;5531;42.570;23.676;2023-01-24T10:27:36;93001.56;;;1.47;100.00
10958;BME280;5531;42.570;23.676;2023-01-24T10:30:14;92994.63;;;1.36;100.00
10958;BME280;5531;42.570;23.676;2023-01-24T10:32:47;92995.44;;;1.48;100.00
10958;BME280;5531;42.570;23.676;2023-01-24T10:35:22;92997.91;;;1.38;100.00
10958;BME280;5531;42.570;23.676;2023-01-24T10:37:57;92996.84;;;1.41;100.00
10958;BME280;5531;42.570;23.676;2023-01-24T10:40:27;92998.03;;;1.48;100.00
10958;BME280;5531;42.570;23.676;2023-01-24T10:43:04;92987.22;;;1.54;100.00
10958;BME280;5531;42.570;23.676;2023-01-24T10:45:43;92989.81;;;1.54;100.00
10958;BME280;5531;42.570;23.676;2023-01-24T10:48:26;92989.22;;;1.62;100.00
10958;BME280;5531;42.570;23.676;2023-01-24T10:51:11;92984.06;;;1.51;100.00
10958;BME280;5531;42.570;23.676;2023-01-24T10:53:41;92985.22;;;1.58;100.00
10958;BME280;5531;42.570;23.676;2023-01-24T10:56:11;92981.59;;;1.60;100.00
10958;BME280;5531;42.570;23.676;2023-01-24T10:58:55;92983.25;;;1.50;100.00
10958;BME280;5531;42.570;23.676;2023-01-24T11:01:33;92982.06;;;1.43;100.00
10958;BME280;5531;42.570;23.676;2023-01-24T11:04:14;92968.56;;;1.39;100.00
10958;BME280;5531;42.570;23.676;2023-01-24T11:06:48;92978.09;;;1.39;100.00
10958;BME280;5531;42.570;23.676;2023-01-24T11:09:18;92973.75;;;1.39;100.00
10958;BME280;5531;42.570;23.676;2023-01-24T11:11:51;92985.94;;;1.37;100.00
10958;BME280;5531;42.570;23.676;2023-01-24T11:14:25;92976.91;;;1.43;100.00
10958;BME280;5531;42.570;23.676;2023-01-24T11:16:57;92985.94;;;1.49;100.00
10958;BME280;5531;42.570;23.676;2023-01-24T11:19:29;92980.91;;;1.47;100.00
10958;BME280;5531;42.570;23.676;2023-01-24T11:21:59;92976.22;;;1.30;100.00
10958;BME280;5531;42.570;23.676;2023-01-24T11:24:29;92965.06;;;1.29;100.00
10958;BME280;5531;42.570;23.676;2023-01-24T11:27:02;92974.78;;;1.25;100.00
10958;BME280;5531;42.570;23.676;2023-01-24T11:29:34;92967.63;;;1.06;100.00
10958;BME280;5531;42.570;23.676;2023-01-24T11:32:22;92966.56;;;1.20;100.00
10958;BME280;5531;42.570;23.676;2023-01-24T11:34:58;92965.75;;;1.20;100.00
10958;BME280;5531;42.570;23.676;2023-01-24T11:40:35;92962.72;;;1.15;100.00
10958;BME280;5531;42.570;23.676;2023-01-24T11:43:31;92956.97;;;1.11;100.00
10958;BME280;5531;42.570;23.676;2023-01-24T11:46:19;92962.59;;;1.27;100.00
10958;BME280;5531;42.570;23.676;2023-01-24T11:48:53;92960.59;;;1.08;100.00
10958;BME280;5531;42.570;23.676;2023-01-24T11:51:44;92956.13;;;0.99;100.00
10958;BME280;5531;42.570;23.676;2023-01-24T11:54:36;92955.88;;;1.02;100.00
10958;BME280;5531;42.570;23.676;2023-01-24T11:57:19;92954.28;;;1.13;100.00
10958;BME280;5531;42.570;23.676;2023-01-24T12:00:06;92956.63;;;1.04;100.00
10958;BME280;5531;42.570;23.676;2023-01-24T12:06:00;92954.59;;;0.85;100.00
10958;BME280;5531;42.570;23.676;2023-01-24T12:08:43;92967.84;;;0.92;100.00
10958;BME280;5531;42.570;23.676;2023-01-24T12:11:20;92962.44;;;0.84;100.00
10958;BME280;5531;42.570;23.676;2023-01-24T12:14:05;92963.47;;;0.81;100.00
10958;BME280;5531;42.570;23.676;2023-01-24T12:16:47;92964.56;;;0.90;100.00
10958;BME280;5531;42.570;23.676;2023-01-24T12:19:39;92964.44;;;0.80;100.00
10958;BME280;5531;42.570;23.676;2023-01-24T12:22:16;92957.63;;;0.79;100.00
10958;BME280;5531;42.570;23.676;2023-01-24T12:24:52;92959.50;;;0.77;100.00
10958;BME280;5531;42.570;23.676;2023-01-24T12:27:25;92960.53;;;0.75;100.00
10958;BME280;5531;42.570;23.676;2023-01-24T12:29:58;92963.56;;;0.68;100.00
10958;BME280;5531;42.570;23.676;2023-01-24T12:32:31;92963.22;;;0.73;100.00
10958;BME280;5531;42.570;23.676;2023-01-24T12:35:15;92962.97;;;0.65;100.00
10958;BME280;5531;42.570;23.676;2023-01-24T12:37:51;92968.00;;;0.55;100.00
10958;BME280;5531;42.570;23.676;2023-01-24T12:40:27;92967.34;;;0.64;100.00
10958;BME280;5531;42.570;23.676;2023-01-24T12:43:03;92962.50;;;0.60;100.00
10958;BME280;5531;42.570;23.676;2023-01-24T12:45:39;92971.69;;;0.64;100.00
10958;BME280;5531;42.570;23.676;2023-01-24T12:48:16;92971.78;;;0.62;100.00
10958;BME280;5531;42.570;23.676;2023-01-24T12:50:53;92969.94;;;0.76;100.00
10958;BME280;5531;42.570;23.676;2023-01-24T12:53:31;92964.56;;;0.90;100.00
10958;BME280;5531;42.570;23.676;2023-01-24T12:56:08;92966.81;;;0.95;100.00
10958;BME280;5531;42.570;23.676;2023-01-24T12:58:41;92963.75;;;1.12;100.00
10958;BME280;5531;42.570;23.676;2023-01-24T13:04:18;92956.59;;;1.16;100.00
10958;BME280;5531;42.570;23.676;2023-01-24T13:06:59;92954.28;;;1.13;100.00
10958;BME280;5531;42.570;23.676;2023-01-24T13:09:36;92961.06;;;1.25;100.00
10958;BME280;5531;42.570;23.676;2023-01-24T13:12:12;92966.81;;;1.17;100.00
10958;BME280;5531;42.570;23.676;2023-01-24T13:14:45;92965.31;;;1.26;100.00
10958;BME280;5531;42.570;23.676;2023-01-24T13:17:42;92962.94;;;1.34;100.00
10958;BME280;5531;42.570;23.676;2023-01-24T13:20:26;92959.19;;;1.38;100.00
10958;BME280;5531;42.570;23.676;2023-01-24T13:23:18;92959.78;;;1.42;100.00
10958;BME280;5531;42.570;23.676;2023-01-24T13:26:07;92956.59;;;1.50;100.00
10958;BME280;5531;42.570;23.676;2023-01-24T13:28:52;92954.63;;;1.42;100.00
10958;BME280;5531;42.570;23.676;2023-01-24T13:31:29;92956.97;;;1.34;100.00
10958;BME280;5531;42.570;23.676;2023-01-24T13:34:00;92951.81;;;1.00;100.00
10958;BME280;5531;42.570;23.676;2023-01-24T13:36:33;92960.47;;;0.99;100.00
10958;BME280;5531;42.570;23.676;2023-01-24T13:39:06;92968.44;;;0.96;100.00
10958;BME280;5531;42.570;23.676;2023-01-24T13:41:37;92968.78;;;1.02;100.00
10958;BME280;5531;42.570;23.676;2023-01-24T13:44:27;92977.13;;;0.95;100.00
10958;BME280;5531;42.570;23.676;2023-01-24T13:47:01;92970.22;;;1.06;100.00